Fritzlar Airport ETHF

Flugplatz Daten

Name: Fritzlar Airport

Ident: ETHF

Lat: 51,1146

Long: 9,286

Platzhöhe: 1345 ft

IataCode: FRZ

City: Fritzlar

Metar

2021/10/20 13:20
ETHF 201320Z 18009KT 9999 -RA BKN017 BKN032 15/12 Q1007 WHT BLU+ TEMPO WHT

Taf

2018/01/30 15:57
TAF TAF ETHF 301432Z 3015/3103 25005KT 9999 NSW SCT030 BKN200
Gewünschte Webcam nicht vorhanden? Dann fügen Sie eine hinzu. Sie wird dann so schnell wie möglich freigeschaltet
Url: Title: